createdAt,value
2018-01-10T00:01:51.086Z,90.21
2018-01-10T00:04:19.430Z,90.24
2018-01-10T00:06:47.753Z,90.29
2018-01-10T00:09:16.098Z,89.71
2018-01-10T00:11:44.418Z,89.47
2018-01-10T00:14:12.766Z,89.22
2018-01-10T00:16:41.097Z,89.13
2018-01-10T00:19:09.448Z,88.94
2018-01-10T00:21:37.766Z,89.04
2018-01-10T00:24:06.094Z,89.06
2018-01-10T00:26:34.441Z,88.82
2018-01-10T00:29:02.774Z,88.77
2018-01-10T00:31:31.117Z,88.71
2018-01-10T00:33:59.440Z,88.87
2018-01-10T00:36:27.786Z,89.10
2018-01-10T00:38:56.109Z,90.09
2018-01-10T00:41:24.458Z,90.68
2018-01-10T00:43:52.782Z,90.73
2018-01-10T00:46:21.125Z,91.08
2018-01-10T00:48:49.450Z,92.06
2018-01-10T00:51:17.799Z,92.46
2018-01-10T00:53:46.122Z,92.16
2018-01-10T00:56:14.470Z,91.66
2018-01-10T00:58:42.794Z,91.36
2018-01-10T01:01:11.138Z,91.09
2018-01-10T01:03:39.461Z,90.99
2018-01-10T01:06:07.806Z,90.82
2018-01-10T01:08:36.138Z,90.63
2018-01-10T01:11:04.482Z,90.61
2018-01-10T01:13:32.814Z,90.84
2018-01-10T01:16:01.159Z,91.15
2018-01-10T01:18:29.482Z,90.72
2018-01-10T01:20:57.831Z,90.02
2018-01-10T01:23:26.150Z,90.12
2018-01-10T01:25:54.494Z,90.13
2018-01-10T01:28:22.819Z,90.27
2018-01-10T01:30:51.161Z,89.96
2018-01-10T01:33:19.484Z,89.81
2018-01-10T01:35:47.830Z,90.05
2018-01-10T01:38:16.158Z,90.52
2018-01-10T01:40:44.502Z,90.94
2018-01-10T01:43:12.825Z,90.97
2018-01-10T01:45:41.169Z,91.08
2018-01-10T01:48:09.489Z,90.73
2018-01-10T01:50:37.834Z,91.68
2018-01-10T01:53:06.158Z,91.59
2018-01-10T01:55:34.506Z,91.78
2018-01-10T01:58:02.829Z,91.77
2018-01-10T02:00:31.169Z,92.02
2018-01-10T02:02:59.494Z,92.18
2018-01-10T02:05:27.837Z,92.25
2018-01-10T02:07:56.162Z,92.11
2018-01-10T02:10:24.506Z,91.98
2018-01-10T02:12:52.829Z,91.83
2018-01-10T02:15:21.174Z,91.43
2018-01-10T02:17:49.497Z,91.22
2018-01-10T02:20:17.850Z,91.03
2018-01-10T02:22:46.182Z,90.71
2018-01-10T02:25:14.506Z,91.42
2018-01-10T02:27:42.851Z,91.59
2018-01-10T02:30:11.170Z,91.99
2018-01-10T02:32:39.513Z,91.81
2018-01-10T02:35:07.842Z,91.61
2018-01-10T02:37:36.184Z,91.25
2018-01-10T02:40:04.506Z,90.86
2018-01-10T02:42:37.617Z,90.66
2018-01-10T02:45:05.945Z,90.60
2018-01-10T02:47:34.286Z,90.52
2018-01-10T02:50:02.610Z,90.41
2018-01-10T02:52:30.958Z,90.52
2018-01-10T02:54:59.284Z,90.56
2018-01-10T02:57:27.632Z,90.45
2018-01-10T02:59:55.954Z,90.34
2018-01-10T03:02:24.325Z,90.25
2018-01-10T03:04:52.631Z,90.45
2018-01-10T03:07:20.973Z,90.33
2018-01-10T03:09:49.297Z,90.01
2018-01-10T03:12:17.636Z,89.88
2018-01-10T03:14:45.962Z,91.11
2018-01-10T03:17:14.305Z,92.92
2018-01-10T03:19:42.636Z,93.40
2018-01-10T03:22:10.973Z,93.51
2018-01-10T03:24:39.299Z,94.18
2018-01-10T03:27:07.649Z,94.87
2018-01-10T03:29:35.969Z,95.19
2018-01-10T03:32:04.309Z,95.23
2018-01-10T03:34:32.629Z,95.17
2018-01-10T03:37:00.973Z,94.73
2018-01-10T03:39:29.298Z,94.54
2018-01-10T03:41:57.641Z,94.32
2018-01-10T03:44:25.965Z,94.25
2018-01-10T03:46:54.314Z,94.20
2018-01-10T03:49:22.637Z,93.93
2018-01-10T03:51:50.981Z,93.69
2018-01-10T03:54:19.307Z,93.50
2018-01-10T03:56:47.649Z,92.92
2018-01-10T03:59:15.970Z,92.67
2018-01-10T04:01:44.318Z,92.22
2018-01-10T04:04:12.646Z,91.98
2018-01-10T04:06:40.998Z,91.74
2018-01-10T04:09:09.322Z,91.85
2018-01-10T04:11:37.670Z,91.93
2018-01-10T04:14:05.989Z,92.13
2018-01-10T04:16:34.329Z,91.98
2018-01-10T04:19:02.654Z,91.76
2018-01-10T04:21:30.997Z,91.88
2018-01-10T04:23:59.328Z,91.95
2018-01-10T04:26:27.678Z,92.10
2018-01-10T04:28:56.001Z,92.17
2018-01-10T04:31:24.329Z,92.87
2018-01-10T04:33:52.672Z,93.82
2018-01-10T04:36:20.995Z,95.08
2018-01-10T04:38:49.347Z,95.47
2018-01-10T04:41:17.670Z,95.76
2018-01-10T04:43:46.015Z,95.63
2018-01-10T04:46:14.338Z,95.46
2018-01-10T04:48:42.681Z,95.07
2018-01-10T04:51:11.006Z,94.66
2018-01-10T04:53:39.349Z,94.61
2018-01-10T04:56:07.674Z,94.49
2018-01-10T04:58:36.018Z,94.37
2018-01-10T05:01:04.341Z,94.13
2018-01-10T05:03:32.687Z,94.05
2018-01-10T05:06:01.009Z,93.81
2018-01-10T05:08:29.354Z,93.61
2018-01-10T05:10:57.677Z,93.54
2018-01-10T05:13:26.025Z,93.46
2018-01-10T05:15:54.346Z,93.29
2018-01-10T05:18:22.694Z,93.25
2018-01-10T05:20:51.017Z,93.09
2018-01-10T05:23:19.357Z,93.25
2018-01-10T05:25:47.682Z,92.99
2018-01-10T05:28:16.030Z,92.91
2018-01-10T05:30:44.354Z,92.96
2018-01-10T05:33:12.697Z,92.90
2018-01-10T05:35:41.021Z,93.02
2018-01-10T05:38:09.374Z,93.14
2018-01-10T05:40:37.703Z,93.06
2018-01-10T05:43:06.054Z,93.02
2018-01-10T05:45:35.326Z,93.05
2018-01-10T05:48:03.670Z,92.98
2018-01-10T05:50:31.997Z,92.86
2018-01-10T05:53:00.345Z,92.76
2018-01-10T05:55:28.669Z,92.71
2018-01-10T05:57:57.021Z,92.30
2018-01-10T06:00:25.349Z,92.20
2018-01-10T06:02:53.693Z,92.00
2018-01-10T06:05:22.026Z,91.72
2018-01-10T06:07:50.375Z,91.79
2018-01-10T06:10:18.730Z,91.56
2018-01-10T06:12:48.391Z,91.77
2018-01-10T06:15:16.722Z,91.67
2018-01-10T06:17:45.650Z,91.51
2018-01-10T06:20:14.051Z,91.11
2018-01-10T06:22:42.699Z,91.24
2018-01-10T06:25:11.074Z,91.14
2018-01-10T06:27:39.417Z,90.90
2018-01-10T06:30:10.369Z,91.14
2018-01-10T06:32:38.724Z,91.30
2018-01-10T06:35:07.081Z,91.09
2018-01-10T06:37:36.953Z,91.20
2018-01-10T06:40:06.268Z,91.16
2018-01-10T06:42:34.578Z,91.05
2018-01-10T06:45:02.944Z,90.66
2018-01-10T06:47:31.306Z,90.40
2018-01-10T06:49:59.783Z,90.68
2018-01-10T06:52:28.098Z,90.63
2018-01-10T06:54:56.459Z,90.23
2018-01-10T06:57:25.511Z,90.23
2018-01-10T06:59:53.891Z,90.37
2018-01-10T07:02:22.241Z,90.28
2018-01-10T07:04:50.591Z,90.29
2018-01-10T07:07:19.019Z,90.44
2018-01-10T07:09:47.377Z,90.42
2018-01-10T07:12:15.707Z,90.25
2018-01-10T07:14:44.063Z,90.13
2018-01-10T07:17:12.390Z,90.75
2018-01-10T07:19:40.739Z,89.71
2018-01-10T07:22:09.065Z,89.28
2018-01-10T07:24:37.410Z,89.51
2018-01-10T07:27:05.744Z,89.14
2018-01-10T07:29:34.091Z,89.97
2018-01-10T07:32:02.415Z,89.33
2018-01-10T07:34:30.766Z,89.29
2018-01-10T07:36:59.095Z,89.03
2018-01-10T07:39:27.447Z,89.43
2018-01-10T07:41:55.778Z,89.73
2018-01-10T07:44:24.140Z,89.48
2018-01-10T07:46:52.470Z,89.37
2018-01-10T07:49:20.809Z,89.29
2018-01-10T07:51:49.138Z,89.74
2018-01-10T07:54:17.498Z,89.74
2018-01-10T07:56:45.827Z,89.84
2018-01-10T07:59:14.169Z,90.13
2018-01-10T08:01:42.502Z,90.22
2018-01-10T08:04:10.859Z,90.24
2018-01-10T08:06:39.189Z,90.34
2018-01-10T08:09:07.543Z,90.63
2018-01-10T08:11:35.867Z,90.82
2018-01-10T08:14:04.215Z,90.98
2018-01-10T08:16:32.543Z,90.92
2018-01-10T08:19:00.900Z,90.70
2018-01-10T08:21:29.217Z,90.71
2018-01-10T08:23:57.562Z,90.52
2018-01-10T08:26:25.885Z,90.87
2018-01-10T08:28:54.229Z,91.58
2018-01-10T08:31:22.554Z,91.14
2018-01-10T08:33:50.904Z,91.10
2018-01-10T08:36:19.227Z,91.61
2018-01-10T08:38:47.578Z,91.72
2018-01-10T08:41:15.922Z,91.74
2018-01-10T08:43:44.250Z,91.68
2018-01-10T08:46:12.598Z,91.77
2018-01-10T08:48:40.923Z,92.25
2018-01-10T08:51:09.266Z,92.01
2018-01-10T08:53:37.589Z,91.66
2018-01-10T08:56:05.943Z,91.68
2018-01-10T08:58:34.266Z,91.45
2018-01-10T09:01:02.617Z,91.33
2018-01-10T09:03:30.942Z,90.99
2018-01-10T09:05:59.286Z,90.49
2018-01-10T09:08:27.616Z,90.26
2018-01-10T09:10:55.962Z,89.73
2018-01-10T09:13:24.290Z,89.37
2018-01-10T09:15:52.641Z,89.48
2018-01-10T09:18:20.975Z,88.99
2018-01-10T09:20:49.314Z,88.83
2018-01-10T09:23:17.647Z,88.78
2018-01-10T09:25:45.996Z,88.47
2018-01-10T09:28:14.332Z,88.30
2018-01-10T09:30:42.679Z,88.42
2018-01-10T09:33:11.009Z,87.92
2018-01-10T09:35:39.358Z,88.05
2018-01-10T09:38:07.682Z,88.29
2018-01-10T09:40:36.034Z,88.44
2018-01-10T09:43:04.371Z,88.33
2018-01-10T09:45:32.715Z,88.21
2018-01-10T09:48:01.039Z,88.36
2018-01-10T09:50:29.382Z,88.65
2018-01-10T09:52:57.709Z,88.58
2018-01-10T09:55:26.054Z,88.54
2018-01-10T09:57:54.378Z,88.69
2018-01-10T10:00:22.722Z,88.79
2018-01-10T10:02:51.057Z,89.00
2018-01-10T10:05:19.402Z,88.50
2018-01-10T10:07:47.730Z,88.59
2018-01-10T10:10:16.078Z,88.52
2018-01-10T10:12:44.412Z,88.17
2018-01-10T10:15:12.762Z,88.32
2018-01-10T10:17:41.094Z,88.32
2018-01-10T10:20:09.445Z,88.01
2018-01-10T10:22:37.778Z,88.26
2018-01-10T10:25:06.129Z,88.43
2018-01-10T10:27:34.458Z,88.18
2018-01-10T10:30:02.811Z,88.41
2018-01-10T10:32:31.134Z,88.42
2018-01-10T10:34:59.482Z,88.20
2018-01-10T10:37:27.805Z,87.40
2018-01-10T10:39:56.139Z,87.04
2018-01-10T10:42:24.481Z,86.92
2018-01-10T10:44:52.807Z,86.63
2018-01-10T10:47:21.151Z,86.50
2018-01-10T10:49:49.482Z,86.60
2018-01-10T10:52:18.084Z,85.54
2018-01-10T10:54:46.486Z,85.22
2018-01-10T10:57:14.844Z,84.70
2018-01-10T10:59:43.173Z,84.30
2018-01-10T11:02:11.526Z,84.61
2018-01-10T11:04:40.066Z,84.51
2018-01-10T11:07:08.413Z,84.30
2018-01-10T11:09:36.743Z,83.86
2018-01-10T11:12:05.089Z,83.52
2018-01-10T11:14:33.418Z,83.17
2018-01-10T11:17:01.774Z,82.57
2018-01-10T11:19:30.110Z,82.48
2018-01-10T11:21:58.462Z,82.11
2018-01-10T11:24:26.786Z,82.32
2018-01-10T11:26:55.134Z,82.64
2018-01-10T11:29:23.462Z,82.48
2018-01-10T11:31:51.817Z,82.14
2018-01-10T11:34:20.151Z,81.78
2018-01-10T11:36:48.493Z,81.49
2018-01-10T11:39:16.821Z,81.88
2018-01-10T11:41:45.177Z,81.87
2018-01-10T11:44:13.506Z,81.77
2018-01-10T11:46:41.855Z,80.94
2018-01-10T11:49:10.188Z,82.01
2018-01-10T11:51:38.530Z,82.93
2018-01-10T11:54:06.855Z,83.62
2018-01-10T11:56:35.206Z,84.23
2018-01-10T11:59:03.531Z,84.39
2018-01-10T12:01:31.877Z,83.50
2018-01-10T12:04:00.201Z,83.46
2018-01-10T12:06:28.546Z,83.89
2018-01-10T12:08:56.867Z,83.65
2018-01-10T12:11:25.210Z,84.00
2018-01-10T12:13:53.538Z,83.67
2018-01-10T12:16:21.881Z,83.96
2018-01-10T12:18:50.197Z,84.62
2018-01-10T12:21:19.246Z,84.47
2018-01-10T12:23:47.565Z,84.25
2018-01-10T12:26:15.907Z,84.57
2018-01-10T12:28:44.226Z,85.15
2018-01-10T12:31:12.751Z,85.00
2018-01-10T12:33:41.079Z,84.50
2018-01-10T12:36:09.411Z,83.95
2018-01-10T12:38:37.729Z,82.82
2018-01-10T12:41:06.050Z,82.53
2018-01-10T12:43:34.403Z,82.50
2018-01-10T12:46:02.726Z,82.69
2018-01-10T12:48:31.061Z,81.96
2018-01-10T12:50:59.390Z,82.27
2018-01-10T12:53:27.730Z,82.64
2018-01-10T12:55:56.057Z,83.23
2018-01-10T12:58:24.408Z,83.18
2018-01-10T13:00:52.730Z,83.74
2018-01-10T13:03:21.074Z,83.55
2018-01-10T13:05:49.397Z,83.65
2018-01-10T13:08:17.739Z,84.07
2018-01-10T13:10:46.058Z,84.37
2018-01-10T13:13:14.399Z,84.42
2018-01-10T13:15:42.722Z,84.47
2018-01-10T13:18:11.070Z,84.12
2018-01-10T13:20:39.385Z,83.63
2018-01-10T13:23:07.731Z,83.52
2018-01-10T13:25:36.049Z,83.53
2018-01-10T13:28:04.398Z,82.84
2018-01-10T13:30:32.718Z,82.07
2018-01-10T13:33:01.094Z,81.83
2018-01-10T13:35:29.430Z,81.73
2018-01-10T13:37:57.780Z,81.63
2018-01-10T13:40:26.110Z,81.72
2018-01-10T13:42:54.455Z,82.11
2018-01-10T13:45:22.781Z,82.63
2018-01-10T13:47:51.138Z,82.80
2018-01-10T13:50:19.478Z,82.94
2018-01-10T13:52:47.826Z,83.25
2018-01-10T13:55:16.190Z,83.15
2018-01-10T13:57:44.530Z,82.99
2018-01-10T14:00:13.763Z,82.94
2018-01-10T14:02:42.094Z,83.15
2018-01-10T14:05:10.417Z,82.72
2018-01-10T14:07:39.022Z,82.43
2018-01-10T14:10:07.330Z,82.13
2018-01-10T14:12:35.688Z,81.57
2018-01-10T14:15:04.006Z,81.56
2018-01-10T14:17:32.350Z,81.03
2018-01-10T14:20:00.682Z,81.04
2018-01-10T14:22:29.145Z,80.47
2018-01-10T14:24:57.480Z,80.29
2018-01-10T14:27:25.843Z,80.14
2018-01-10T14:29:54.163Z,79.68
2018-01-10T14:32:22.502Z,79.64
2018-01-10T14:34:50.830Z,80.01
2018-01-10T14:37:19.177Z,79.66
2018-01-10T14:39:47.505Z,79.81
2018-01-10T14:42:15.826Z,79.55
2018-01-10T14:44:44.171Z,79.74
2018-01-10T14:47:12.495Z,80.41
2018-01-10T14:49:40.848Z,79.50
2018-01-10T14:52:09.165Z,79.62
2018-01-10T14:54:38.538Z,80.49
2018-01-10T14:57:06.890Z,80.35
2018-01-10T14:59:35.231Z,80.59
2018-01-10T15:02:03.554Z,80.64
2018-01-10T15:04:31.902Z,80.84
2018-01-10T15:07:00.242Z,80.71
2018-01-10T15:09:28.583Z,80.80
2018-01-10T15:11:56.930Z,80.23
2018-01-10T15:14:25.292Z,80.61
2018-01-10T15:16:53.623Z,80.89
2018-01-10T15:19:21.966Z,80.74
2018-01-10T15:21:50.289Z,81.00
2018-01-10T15:24:18.661Z,81.13
2018-01-10T15:26:46.973Z,81.23
2018-01-10T15:29:15.370Z,81.91
2018-01-10T15:31:43.708Z,82.10
2018-01-10T15:34:12.070Z,82.26
2018-01-10T15:36:40.454Z,81.45
2018-01-10T15:39:08.798Z,80.99
2018-01-10T15:41:37.130Z,81.27
2018-01-10T15:44:05.550Z,81.78
2018-01-10T15:46:33.861Z,81.94
2018-01-10T15:49:02.291Z,82.24
2018-01-10T15:51:30.706Z,82.82
2018-01-10T15:53:59.262Z,82.66
2018-01-10T15:56:27.767Z,82.47
2018-01-10T15:58:56.146Z,82.85
2018-01-10T16:01:24.534Z,82.78
2018-01-10T16:03:52.935Z,82.58
2018-01-10T16:06:21.498Z,82.38
2018-01-10T16:08:50.039Z,82.74
2018-01-10T16:11:19.410Z,82.85
2018-01-10T16:13:47.846Z,81.73
2018-01-10T16:16:16.210Z,82.04
2018-01-10T16:18:44.623Z,82.56
2018-01-10T16:21:13.379Z,83.03
2018-01-10T16:23:41.722Z,84.83
2018-01-10T16:26:10.978Z,85.35
2018-01-10T16:28:39.421Z,85.08
2018-01-10T16:31:07.850Z,84.80
2018-01-10T16:33:36.341Z,84.46
2018-01-10T16:36:04.678Z,84.28
2018-01-10T16:38:33.030Z,83.63
2018-01-10T16:41:01.348Z,83.31
2018-01-10T16:43:29.711Z,83.02
2018-01-10T16:45:58.047Z,83.07
2018-01-10T16:48:26.381Z,83.01
2018-01-10T16:50:54.730Z,83.40
2018-01-10T16:53:23.050Z,83.56
2018-01-10T16:55:51.393Z,83.46
2018-01-10T16:58:19.714Z,83.54
2018-01-10T17:00:48.062Z,83.52
2018-01-10T17:03:16.602Z,83.28
2018-01-10T17:05:44.946Z,83.13
2018-01-10T17:08:13.274Z,83.22
2018-01-10T17:10:41.613Z,83.44
2018-01-10T17:13:09.942Z,83.31
2018-01-10T17:15:38.290Z,83.74
2018-01-10T17:18:06.626Z,83.84
2018-01-10T17:20:38.104Z,83.67
2018-01-10T17:23:06.797Z,83.85
2018-01-10T17:25:35.146Z,83.99
2018-01-10T17:28:03.521Z,84.25
2018-01-10T17:30:31.961Z,83.88
2018-01-10T17:33:01.756Z,83.71
2018-01-10T17:35:30.543Z,83.68
2018-01-10T17:37:59.097Z,84.33
2018-01-10T17:40:27.678Z,85.26
2018-01-10T17:42:56.001Z,85.40
2018-01-10T17:45:24.813Z,85.78
2018-01-10T17:47:53.170Z,86.13
2018-01-10T17:50:21.521Z,85.53
2018-01-10T17:52:49.859Z,85.33
2018-01-10T17:55:18.541Z,85.34
2018-01-10T17:57:46.949Z,84.68
2018-01-10T18:00:15.436Z,84.05
2018-01-10T18:02:43.762Z,84.27
2018-01-10T18:05:12.146Z,84.39
2018-01-10T18:07:40.506Z,85.59
2018-01-10T18:10:08.854Z,85.53
2018-01-10T18:12:37.182Z,86.05
2018-01-10T18:15:05.658Z,85.96
2018-01-10T18:17:33.980Z,86.34
2018-01-10T18:20:02.319Z,85.98
2018-01-10T18:22:30.666Z,85.79
2018-01-10T18:24:59.835Z,85.98
2018-01-10T18:27:28.162Z,86.07
2018-01-10T18:29:56.518Z,85.49
2018-01-10T18:32:24.855Z,85.61
2018-01-10T18:34:53.206Z,85.73
2018-01-10T18:37:21.623Z,86.07
2018-01-10T18:39:49.995Z,85.99
2018-01-10T18:42:18.326Z,85.94
2018-01-10T18:44:47.383Z,85.92
2018-01-10T18:47:15.711Z,86.27
2018-01-10T18:49:44.067Z,86.08
2018-01-10T18:52:12.395Z,85.73
2018-01-10T18:54:40.745Z,85.68
2018-01-10T18:57:09.186Z,85.69
2018-01-10T18:59:37.518Z,85.93
2018-01-10T19:02:05.866Z,85.91
2018-01-10T19:04:35.279Z,85.49
2018-01-10T19:07:03.633Z,85.50
2018-01-10T19:09:31.962Z,85.49
2018-01-10T19:12:00.318Z,85.26
2018-01-10T19:14:28.673Z,84.83
2018-01-10T19:16:56.986Z,84.57
2018-01-10T19:19:25.305Z,86.60
2018-01-10T19:21:53.662Z,83.34
2018-01-10T19:24:21.986Z,83.42
2018-01-10T19:26:50.329Z,83.51
2018-01-10T19:29:18.653Z,83.94
2018-01-10T19:31:47.006Z,84.45
2018-01-10T19:34:15.432Z,84.21
2018-01-10T19:36:44.395Z,83.58
2018-01-10T19:39:12.695Z,83.52
2018-01-10T19:41:41.046Z,83.82
2018-01-10T19:44:10.250Z,83.73
2018-01-10T19:46:38.600Z,83.83
2018-01-10T19:49:07.759Z,83.99
2018-01-10T19:51:36.102Z,83.52
2018-01-10T19:54:04.434Z,83.49
2018-01-10T19:56:32.774Z,83.54
2018-01-10T19:59:01.104Z,83.65
2018-01-10T20:01:29.441Z,83.79
2018-01-10T20:03:57.867Z,83.82
2018-01-10T20:06:26.206Z,84.04
2018-01-10T20:08:54.518Z,83.77
2018-01-10T20:11:22.889Z,83.81
2018-01-10T20:13:51.205Z,84.19
2018-01-10T20:16:19.549Z,83.90
2018-01-10T20:18:47.867Z,83.12
2018-01-10T20:21:16.205Z,83.66
2018-01-10T20:23:44.564Z,83.72
2018-01-10T20:26:12.906Z,83.69
2018-01-10T20:28:41.228Z,83.41
2018-01-10T20:31:09.570Z,82.93
2018-01-10T20:33:37.898Z,82.90
2018-01-10T20:36:06.289Z,82.93
2018-01-10T20:38:34.690Z,82.88
2018-01-10T20:41:03.251Z,83.03
2018-01-10T20:43:32.407Z,82.74
2018-01-10T20:46:00.762Z,83.01
2018-01-10T20:48:32.311Z,82.76
2018-01-10T20:51:01.472Z,82.62
2018-01-10T20:53:29.790Z,83.20
2018-01-10T20:55:58.131Z,83.83
2018-01-10T20:58:26.450Z,84.52
2018-01-10T21:00:54.805Z,84.24
2018-01-10T21:03:23.188Z,84.01
2018-01-10T21:05:51.912Z,84.12
2018-01-10T21:08:20.254Z,83.75
2018-01-10T21:10:48.595Z,83.32
2018-01-10T21:13:16.934Z,83.04
2018-01-10T21:15:45.462Z,82.92
2018-01-10T21:18:13.846Z,82.94
2018-01-10T21:20:42.165Z,82.50
2018-01-10T21:23:10.515Z,82.99
2018-01-10T21:25:39.522Z,82.97
2018-01-10T21:28:07.861Z,82.72
2018-01-10T21:30:36.191Z,82.87
2018-01-10T21:33:04.534Z,82.73
2018-01-10T21:35:32.853Z,82.73
2018-01-10T21:38:01.198Z,82.32
2018-01-10T21:40:29.525Z,82.22
2018-01-10T21:42:57.870Z,82.55
2018-01-10T21:45:27.066Z,82.63
2018-01-10T21:47:55.414Z,83.40
2018-01-10T21:50:23.734Z,83.91
2018-01-10T21:52:52.078Z,85.40
2018-01-10T21:55:20.399Z,85.26
2018-01-10T21:57:48.741Z,86.19
2018-01-10T22:00:17.287Z,87.18
2018-01-10T22:02:45.741Z,88.04
2018-01-10T22:05:14.090Z,88.62
2018-01-10T22:07:42.456Z,88.09
2018-01-10T22:10:10.795Z,87.57
2018-01-10T22:12:39.133Z,87.19
2018-01-10T22:15:07.457Z,86.65
2018-01-10T22:17:35.842Z,86.53
2018-01-10T22:20:04.166Z,86.92
2018-01-10T22:22:32.521Z,87.08
2018-01-10T22:25:00.838Z,87.42
2018-01-10T22:27:29.174Z,87.63
2018-01-10T22:29:57.518Z,87.88
2018-01-10T22:32:25.867Z,88.07
2018-01-10T22:34:54.187Z,88.30
2018-01-10T22:37:22.521Z,88.15
2018-01-10T22:39:50.840Z,89.10
2018-01-10T22:42:19.177Z,88.93
2018-01-10T22:44:47.493Z,88.40
2018-01-10T22:47:15.834Z,88.15
2018-01-10T22:49:44.157Z,87.75
2018-01-10T22:52:12.489Z,88.61
2018-01-10T22:54:40.811Z,88.87
2018-01-10T22:57:09.154Z,89.69
2018-01-10T22:59:37.470Z,89.31
2018-01-10T23:02:05.809Z,90.21
2018-01-10T23:04:34.128Z,91.02
2018-01-10T23:07:02.447Z,91.18
2018-01-10T23:09:30.794Z,91.24
2018-01-10T23:11:59.113Z,90.99
2018-01-10T23:14:27.450Z,90.59
2018-01-10T23:16:55.765Z,90.23
2018-01-10T23:19:24.106Z,90.39
2018-01-10T23:21:52.425Z,90.80
2018-01-10T23:24:20.766Z,90.75
2018-01-10T23:26:49.091Z,90.49
2018-01-10T23:29:17.430Z,89.67
2018-01-10T23:31:45.741Z,89.19
2018-01-10T23:34:14.078Z,88.29
2018-01-10T23:36:42.393Z,87.93
2018-01-10T23:39:10.740Z,88.26
2018-01-10T23:41:39.057Z,88.47
2018-01-10T23:44:07.394Z,88.05
2018-01-10T23:46:35.714Z,87.79
2018-01-10T23:49:04.049Z,88.05
2018-01-10T23:51:32.366Z,88.53
2018-01-10T23:54:00.706Z,88.88
2018-01-10T23:56:29.034Z,89.34
2018-01-10T23:58:57.373Z,89.48
